createdAt,value
2017-09-20T00:00:41.942Z,58.4
2017-09-20T00:01:44.385Z,58.3
2017-09-20T00:02:46.821Z,58.2
2017-09-20T00:03:49.269Z,58.2
2017-09-20T00:04:51.712Z,58.3
2017-09-20T00:05:54.158Z,58.3
2017-09-20T00:06:56.603Z,58.4
2017-09-20T00:07:59.050Z,58.3
2017-09-20T00:09:01.490Z,58.2
2017-09-20T00:10:03.948Z,58.4
2017-09-20T00:11:06.731Z,58.3
2017-09-20T00:12:09.172Z,58.4
2017-09-20T00:13:11.618Z,58.4
2017-09-20T00:14:14.063Z,58.4
2017-09-20T00:15:16.510Z,58.4
2017-09-20T00:16:18.963Z,58.4
2017-09-20T00:17:21.735Z,58.4
2017-09-20T00:18:24.186Z,58.1
2017-09-20T00:19:26.631Z,58.5
2017-09-20T00:20:29.074Z,58.3
2017-09-20T00:21:31.864Z,58.3
2017-09-20T00:22:34.309Z,58.4
2017-09-20T00:23:36.747Z,58.4
2017-09-20T00:24:39.205Z,58.4
2017-09-20T00:25:41.660Z,58.4
2017-09-20T00:26:44.109Z,58.4
2017-09-20T00:27:46.556Z,58.4
2017-09-20T00:28:49.001Z,58.4
2017-09-20T00:29:51.450Z,58.4
2017-09-20T00:30:53.891Z,58.4
2017-09-20T00:31:56.689Z,58.5
2017-09-20T00:32:59.124Z,58.5
2017-09-20T00:34:01.569Z,58.5
2017-09-20T00:35:04.015Z,58.5
2017-09-20T00:36:06.460Z,58.4
2017-09-20T00:37:08.902Z,58.5
2017-09-20T00:38:11.352Z,58.5
2017-09-20T00:39:13.797Z,58.5
2017-09-20T00:40:16.245Z,58.5
2017-09-20T00:41:18.689Z,58.6
2017-09-20T00:42:21.140Z,58.8
2017-09-20T00:43:23.578Z,58.6
2017-09-20T00:44:26.029Z,58.8
2017-09-20T00:45:28.476Z,58.8
2017-09-20T00:46:30.922Z,58.7
2017-09-20T00:47:33.361Z,58.7
2017-09-20T00:48:35.810Z,58.7
2017-09-20T00:49:38.250Z,58.7
2017-09-20T00:50:40.699Z,58.6
2017-09-20T00:51:43.143Z,58.6
2017-09-20T00:52:45.586Z,58.7
2017-09-20T00:53:48.034Z,58.7
2017-09-20T00:54:50.480Z,58.7
2017-09-20T00:55:52.922Z,58.7
2017-09-20T00:56:55.362Z,58.7
2017-09-20T00:57:57.802Z,58.6
2017-09-20T00:59:00.243Z,58.7
2017-09-20T01:00:02.693Z,58.8
2017-09-20T01:01:05.145Z,58.8
2017-09-20T01:02:07.581Z,58.8
2017-09-20T01:03:10.374Z,58.7
2017-09-20T01:04:12.823Z,58.7
2017-09-20T01:05:15.269Z,58.7
2017-09-20T01:06:17.715Z,58.8
2017-09-20T01:07:20.155Z,58.8
2017-09-20T01:08:22.598Z,58.9
2017-09-20T01:09:25.059Z,58.9
2017-09-20T01:10:27.842Z,58.9
2017-09-20T01:11:30.281Z,59
2017-09-20T01:12:32.719Z,59
2017-09-20T01:13:35.165Z,59.1
2017-09-20T01:14:37.618Z,59
2017-09-20T01:15:40.062Z,59
2017-09-20T01:16:42.500Z,58.9
2017-09-20T01:17:44.948Z,59
2017-09-20T01:18:47.389Z,58.9
2017-09-20T01:19:49.844Z,58.9
2017-09-20T01:20:52.289Z,58.9
2017-09-20T01:21:54.732Z,59
2017-09-20T01:22:57.181Z,59.1
2017-09-20T01:23:59.636Z,59
2017-09-20T01:25:02.437Z,58.9
2017-09-20T01:26:04.870Z,59
2017-09-20T01:27:07.314Z,59.1
2017-09-20T01:28:09.762Z,59
2017-09-20T01:29:12.209Z,59.1
2017-09-20T01:30:14.648Z,59.1
2017-09-20T01:31:17.093Z,59.2
2017-09-20T01:32:19.533Z,59.1
2017-09-20T01:33:21.984Z,59.1
2017-09-20T01:34:24.438Z,59.2
2017-09-20T01:35:26.875Z,59.2
2017-09-20T01:36:29.326Z,59.2
2017-09-20T01:37:31.774Z,59.2
2017-09-20T01:38:34.214Z,59.2
2017-09-20T01:39:36.659Z,59.2
2017-09-20T01:40:39.095Z,59.3
2017-09-20T01:41:41.543Z,59.3
2017-09-20T01:42:43.989Z,59.2
2017-09-20T01:43:46.437Z,59.3
2017-09-20T01:44:48.873Z,59.2
2017-09-20T01:45:51.669Z,59.3
2017-09-20T01:46:54.459Z,59.2
2017-09-20T01:47:56.911Z,59.4
2017-09-20T01:48:59.355Z,59.4
2017-09-20T01:50:01.792Z,59.4
2017-09-20T01:51:04.236Z,59.5
2017-09-20T01:52:06.682Z,59.5
2017-09-20T01:53:09.130Z,59.4
2017-09-20T01:54:11.573Z,59.4
2017-09-20T01:55:14.019Z,59.5
2017-09-20T01:56:16.463Z,59.4
2017-09-20T01:57:18.903Z,59.5
2017-09-20T01:58:21.349Z,59.5
2017-09-20T01:59:23.792Z,59.6
2017-09-20T02:00:26.242Z,59.4
2017-09-20T02:01:28.689Z,59.5
2017-09-20T02:02:31.134Z,59.5
2017-09-20T02:03:33.584Z,59.5
2017-09-20T02:04:36.030Z,59.6
2017-09-20T02:05:38.475Z,59.6
2017-09-20T02:06:40.926Z,59.6
2017-09-20T02:07:44.043Z,59.7
2017-09-20T02:08:46.488Z,59.6
2017-09-20T02:09:49.272Z,59.7
2017-09-20T02:10:51.717Z,59.7
2017-09-20T02:11:54.158Z,59.7
2017-09-20T02:12:56.612Z,59.7
2017-09-20T02:13:59.053Z,59.6
2017-09-20T02:15:01.847Z,59.6
2017-09-20T02:16:04.298Z,59.8
2017-09-20T02:17:06.738Z,59.8
2017-09-20T02:18:09.186Z,59.8
2017-09-20T02:19:11.633Z,59.7
2017-09-20T02:20:14.076Z,59.9
2017-09-20T02:21:16.524Z,59.9
2017-09-20T02:22:18.967Z,59.8
2017-09-20T02:23:21.418Z,59.9
2017-09-20T02:24:23.861Z,59.9
2017-09-20T02:25:26.296Z,60
2017-09-20T02:26:28.737Z,60
2017-09-20T02:27:31.175Z,60
2017-09-20T02:28:33.619Z,60
2017-09-20T02:29:36.066Z,60
2017-09-20T02:30:38.517Z,60
2017-09-20T02:31:40.959Z,60
2017-09-20T02:32:43.412Z,60
2017-09-20T02:33:46.191Z,60
2017-09-20T02:34:48.639Z,60
2017-09-20T02:35:51.085Z,60
2017-09-20T02:36:53.531Z,60
2017-09-20T02:37:55.966Z,59.9
2017-09-20T02:38:58.410Z,60
2017-09-20T02:40:00.848Z,60
2017-09-20T02:41:03.298Z,60
2017-09-20T02:42:05.747Z,60
2017-09-20T02:43:08.885Z,59.9
2017-09-20T02:44:11.329Z,60
2017-09-20T02:45:13.775Z,60
2017-09-20T02:46:16.211Z,60
2017-09-20T02:47:18.667Z,60
2017-09-20T02:48:21.103Z,60
2017-09-20T02:49:23.550Z,60
2017-09-20T02:50:26.000Z,60
2017-09-20T02:51:28.777Z,60
2017-09-20T02:52:31.218Z,60
2017-09-20T02:53:33.666Z,60
2017-09-20T02:54:36.113Z,60
2017-09-20T02:55:38.558Z,60
2017-09-20T02:56:40.997Z,59.9
2017-09-20T02:57:43.445Z,60
2017-09-20T02:58:45.899Z,60
2017-09-20T02:59:48.344Z,60
2017-09-20T03:00:50.791Z,60
2017-09-20T03:01:53.231Z,60
2017-09-20T03:02:55.672Z,60
2017-09-20T03:03:58.120Z,60
2017-09-20T03:05:00.556Z,60
2017-09-20T03:06:02.993Z,60.1
2017-09-20T03:07:05.437Z,60.1
2017-09-20T03:08:07.879Z,60
2017-09-20T03:09:10.322Z,60
2017-09-20T03:10:12.776Z,60.1
2017-09-20T03:11:15.563Z,60.2
2017-09-20T03:12:18.002Z,60.3
2017-09-20T03:13:20.454Z,60.1
2017-09-20T03:14:22.895Z,60.1
2017-09-20T03:15:25.335Z,60.2
2017-09-20T03:16:27.781Z,60.1
2017-09-20T03:17:30.222Z,60.1
2017-09-20T03:18:32.675Z,60.2
2017-09-20T03:19:35.125Z,60.2
2017-09-20T03:20:37.559Z,60.2
2017-09-20T03:21:40.005Z,60.2
2017-09-20T03:22:42.455Z,60.2
2017-09-20T03:23:44.897Z,60.2
2017-09-20T03:24:47.345Z,60.3
2017-09-20T03:25:49.789Z,60.3
2017-09-20T03:26:52.604Z,60.3
2017-09-20T03:27:55.051Z,60.2
2017-09-20T03:28:57.501Z,60.3
2017-09-20T03:29:59.947Z,60.3
2017-09-20T03:31:02.750Z,60.4
2017-09-20T03:32:05.539Z,60.4
2017-09-20T03:33:07.983Z,60.4
2017-09-20T03:34:10.420Z,60.4
2017-09-20T03:35:12.870Z,60.5
2017-09-20T03:36:15.313Z,60.4
2017-09-20T03:37:17.762Z,60.4
2017-09-20T03:38:20.199Z,60.4
2017-09-20T03:39:22.648Z,60.4
2017-09-20T03:40:25.085Z,60.4
2017-09-20T03:41:27.530Z,60.5
2017-09-20T03:42:29.975Z,60.5
2017-09-20T03:43:32.422Z,60.5
2017-09-20T03:44:34.859Z,60.5
2017-09-20T03:45:37.316Z,60.5
2017-09-20T03:46:39.751Z,60.4
2017-09-20T03:47:42.204Z,60.5
2017-09-20T03:48:44.652Z,60.5
2017-09-20T03:49:47.098Z,60.5
2017-09-20T03:50:49.541Z,60.5
2017-09-20T03:51:51.983Z,60.4
2017-09-20T03:52:54.422Z,60.5
2017-09-20T03:53:56.857Z,60.5
2017-09-20T03:54:59.307Z,60.4
2017-09-20T03:56:01.755Z,60.5
2017-09-20T03:57:04.190Z,60.5
2017-09-20T03:58:07.026Z,60.5
2017-09-20T03:59:09.465Z,60.6
2017-09-20T04:00:11.905Z,60.6
2017-09-20T04:01:14.353Z,60.7
2017-09-20T04:02:16.797Z,60.6
2017-09-20T04:03:19.231Z,60.6
2017-09-20T04:04:21.685Z,60.7
2017-09-20T04:05:24.138Z,60.9
2017-09-20T04:06:26.582Z,60.8
2017-09-20T04:07:29.031Z,60.8
2017-09-20T04:08:31.469Z,60.7
2017-09-20T04:09:33.907Z,60.9
2017-09-20T04:10:36.363Z,60.8
2017-09-20T04:11:38.800Z,60.8
2017-09-20T04:12:41.236Z,60.8
2017-09-20T04:13:43.684Z,60.8
2017-09-20T04:14:46.124Z,60.9
2017-09-20T04:15:48.574Z,61
2017-09-20T04:16:51.023Z,60.9
2017-09-20T04:17:53.460Z,60.9
2017-09-20T04:18:55.903Z,61
2017-09-20T04:19:58.358Z,61
2017-09-20T04:21:00.798Z,61
2017-09-20T04:22:03.239Z,61
2017-09-20T04:23:05.688Z,61
2017-09-20T04:24:08.141Z,61
2017-09-20T04:25:10.579Z,61
2017-09-20T04:26:13.026Z,61
2017-09-20T04:27:15.482Z,61
2017-09-20T04:28:17.923Z,61
2017-09-20T04:29:20.359Z,61.1
2017-09-20T04:30:22.809Z,61.1
2017-09-20T04:31:25.248Z,61.1
2017-09-20T04:32:27.691Z,61.1
2017-09-20T04:33:30.140Z,61.1
2017-09-20T04:34:32.575Z,61.2
2017-09-20T04:35:35.363Z,61.1
2017-09-20T04:36:37.821Z,61.2
2017-09-20T04:37:40.258Z,61.5
2017-09-20T04:38:42.698Z,61.4
2017-09-20T04:39:45.148Z,61.4
2017-09-20T04:40:47.596Z,61.6
2017-09-20T04:41:50.048Z,61.5
2017-09-20T04:42:52.495Z,61.5
2017-09-20T04:43:54.925Z,61.5
2017-09-20T04:44:57.377Z,61.5
2017-09-20T04:45:59.820Z,61.6
2017-09-20T04:47:02.264Z,61.6
2017-09-20T04:48:04.707Z,61.7
2017-09-20T04:49:07.145Z,61.7
2017-09-20T04:50:09.587Z,61.6
2017-09-20T04:51:12.046Z,61.6
2017-09-20T04:52:15.188Z,61.7
2017-09-20T04:53:17.629Z,61.6
2017-09-20T04:54:20.067Z,61.7
2017-09-20T04:55:22.506Z,61.6
2017-09-20T04:56:24.951Z,61.7
2017-09-20T04:57:27.732Z,61.7
2017-09-20T04:58:30.180Z,61.7
2017-09-20T04:59:32.622Z,61.7
2017-09-20T05:00:35.071Z,61.7
2017-09-20T05:01:37.520Z,61.7
2017-09-20T05:02:39.973Z,61.7
2017-09-20T05:03:42.420Z,61.7
2017-09-20T05:04:44.870Z,61.7
2017-09-20T05:05:47.316Z,61.9
2017-09-20T05:06:49.766Z,61.8
2017-09-20T05:07:52.202Z,61.7
2017-09-20T05:08:54.646Z,61.8
2017-09-20T05:09:57.087Z,61.9
2017-09-20T05:10:59.878Z,61.9
2017-09-20T05:12:02.327Z,61.9
2017-09-20T05:13:04.771Z,61.8
2017-09-20T05:14:07.210Z,61.8
2017-09-20T05:15:09.662Z,61.8
2017-09-20T05:16:12.101Z,61.8
2017-09-20T05:17:14.899Z,61.9
2017-09-20T05:18:17.339Z,61.8
2017-09-20T05:19:19.783Z,61.7
2017-09-20T05:20:22.229Z,61.9
2017-09-20T05:21:24.678Z,61.9
2017-09-20T05:22:27.126Z,61.9
2017-09-20T05:23:29.575Z,62
2017-09-20T05:24:32.011Z,61.9
2017-09-20T05:25:34.445Z,61.9
2017-09-20T05:26:36.901Z,61.9
2017-09-20T05:27:39.685Z,61.9
2017-09-20T05:28:42.124Z,61.9
2017-09-20T05:29:44.912Z,61.9
2017-09-20T05:30:47.356Z,61.9
2017-09-20T05:31:50.153Z,61.9
2017-09-20T05:32:52.963Z,62
2017-09-20T05:33:55.393Z,61.9
2017-09-20T05:34:57.839Z,61.9
2017-09-20T05:36:00.290Z,61.8
2017-09-20T05:37:02.730Z,61.8
2017-09-20T05:38:05.182Z,61.8
2017-09-20T05:39:07.629Z,61.8
2017-09-20T05:40:10.406Z,61.8
2017-09-20T05:41:12.852Z,61.8
2017-09-20T05:42:15.298Z,61.9
2017-09-20T05:43:17.730Z,61.9
2017-09-20T05:44:20.184Z,62
2017-09-20T05:45:22.634Z,62
2017-09-20T05:46:25.080Z,62
2017-09-20T05:47:27.535Z,62.1
2017-09-20T05:48:29.976Z,62.1
2017-09-20T05:49:32.760Z,62
2017-09-20T05:50:35.217Z,62
2017-09-20T05:51:37.660Z,61.9
2017-09-20T05:52:40.114Z,62
2017-09-20T05:53:42.554Z,61.9
2017-09-20T05:54:45.004Z,62
2017-09-20T05:55:47.448Z,61.9
2017-09-20T05:56:49.888Z,62
2017-09-20T05:57:52.338Z,61.9
2017-09-20T05:58:54.775Z,62
2017-09-20T05:59:57.220Z,62
2017-09-20T06:00:59.668Z,62
2017-09-20T06:02:02.459Z,62
2017-09-20T06:03:04.907Z,61.9
2017-09-20T06:04:07.691Z,61.9
2017-09-20T06:05:10.126Z,61.8
2017-09-20T06:06:12.579Z,61.7
2017-09-20T06:07:15.025Z,61.7
2017-09-20T06:08:17.471Z,61.7
2017-09-20T06:09:19.919Z,61.9
2017-09-20T06:10:22.369Z,61.8
2017-09-20T06:11:25.171Z,61.8
2017-09-20T06:12:27.617Z,61.7
2017-09-20T06:13:30.063Z,61.7
2017-09-20T06:14:32.514Z,61.7
2017-09-20T06:15:34.962Z,61.8
2017-09-20T06:16:37.411Z,61.7
2017-09-20T06:17:39.849Z,61.9
2017-09-20T06:18:42.303Z,61.8
2017-09-20T06:19:44.743Z,61.9
2017-09-20T06:20:47.183Z,61.8
2017-09-20T06:21:49.979Z,61.9
2017-09-20T06:22:52.422Z,61.8
2017-09-20T06:23:54.859Z,61.9
2017-09-20T06:24:57.304Z,61.9
2017-09-20T06:25:59.749Z,62
2017-09-20T06:27:02.192Z,62.1
2017-09-20T06:28:04.637Z,62
2017-09-20T06:29:07.078Z,61.9
2017-09-20T06:30:09.527Z,62.1
2017-09-20T06:31:11.985Z,62.1
2017-09-20T06:32:14.424Z,62.1
2017-09-20T06:33:16.876Z,62.2
2017-09-20T06:34:19.324Z,62.1
2017-09-20T06:35:21.759Z,62.3
2017-09-20T06:36:24.202Z,62.2
2017-09-20T06:37:26.642Z,62.3
2017-09-20T06:38:29.088Z,62.3
2017-09-20T06:39:31.539Z,62.3
2017-09-20T06:40:33.978Z,62.3
2017-09-20T06:41:36.772Z,62.4
2017-09-20T06:42:39.205Z,62.3
2017-09-20T06:43:41.656Z,62.3
2017-09-20T06:44:44.099Z,62.4
2017-09-20T06:45:46.902Z,62.4
2017-09-20T06:46:49.691Z,62.5
2017-09-20T06:47:52.135Z,62.5
2017-09-20T06:48:54.580Z,62.5
2017-09-20T06:49:57.031Z,62.5
2017-09-20T06:50:59.473Z,62.5
2017-09-20T06:52:01.917Z,62.5
2017-09-20T06:53:04.366Z,62.4
2017-09-20T06:54:06.814Z,62.4
2017-09-20T06:55:09.264Z,62.4
2017-09-20T06:56:11.726Z,62.4
2017-09-20T06:57:14.189Z,62
2017-09-20T06:58:16.635Z,62.4
2017-09-20T06:59:19.434Z,62.3
2017-09-20T07:00:21.879Z,62
2017-09-20T07:01:24.331Z,62.3
2017-09-20T07:02:27.114Z,62.2
2017-09-20T07:03:29.559Z,62
2017-09-20T07:04:32.008Z,62.1
2017-09-20T07:05:34.456Z,62.1
2017-09-20T07:06:36.894Z,61.9
2017-09-20T07:07:39.338Z,61.9
2017-09-20T07:08:41.795Z,61.9
2017-09-20T07:09:44.245Z,61.8
2017-09-20T07:10:46.697Z,61.9
2017-09-20T07:11:49.140Z,61.9
2017-09-20T07:12:51.584Z,61.8
2017-09-20T07:13:54.043Z,61.8
2017-09-20T07:14:56.492Z,61.9
2017-09-20T07:15:58.931Z,61.8
2017-09-20T07:17:01.383Z,61.9
2017-09-20T07:18:04.523Z,61.7
2017-09-20T07:19:06.969Z,61.6
2017-09-20T07:20:09.427Z,61.6
2017-09-20T07:21:11.876Z,61.6
2017-09-20T07:22:14.667Z,61.7
2017-09-20T07:23:17.111Z,61.5
2017-09-20T07:24:19.564Z,61.2
2017-09-20T07:25:22.016Z,61.4
2017-09-20T07:26:24.465Z,61.3
2017-09-20T07:27:26.913Z,61.3
2017-09-20T07:28:29.367Z,61.4
2017-09-20T07:29:31.810Z,61.3
2017-09-20T07:30:34.264Z,61.2
2017-09-20T07:31:37.054Z,61.1
2017-09-20T07:32:39.503Z,61.2
2017-09-20T07:33:41.956Z,61.3
2017-09-20T07:34:44.745Z,61.3
2017-09-20T07:35:47.197Z,61.5
2017-09-20T07:36:49.653Z,61.5
2017-09-20T07:37:52.098Z,61.3
2017-09-20T07:38:54.889Z,61.5
2017-09-20T07:39:57.679Z,61.4
2017-09-20T07:41:00.128Z,61.3
2017-09-20T07:42:02.585Z,61.1
2017-09-20T07:43:05.377Z,61
2017-09-20T07:44:07.831Z,61
2017-09-20T07:45:10.281Z,60.9
2017-09-20T07:46:12.730Z,60.8
2017-09-20T07:47:15.182Z,60.7
2017-09-20T07:48:17.634Z,60.7
2017-09-20T07:49:20.075Z,60.6
2017-09-20T07:50:22.532Z,60.7
2017-09-20T07:51:25.008Z,60.6
2017-09-20T07:52:27.803Z,60.6
2017-09-20T07:53:30.263Z,60.6
2017-09-20T07:54:32.722Z,60.6
2017-09-20T07:55:35.549Z,60.7
2017-09-20T07:56:37.980Z,60.6
2017-09-20T07:57:40.426Z,60.7
2017-09-20T07:58:42.874Z,60.7
2017-09-20T07:59:45.338Z,60.7
2017-09-20T08:00:47.792Z,60.8
2017-09-20T08:01:50.236Z,60.8
2017-09-20T08:02:52.688Z,60.6
2017-09-20T08:03:55.145Z,60.7
2017-09-20T08:04:57.592Z,60.7
2017-09-20T08:06:00.043Z,60.7
2017-09-20T08:07:02.488Z,60.8
2017-09-20T08:08:04.935Z,60.9
2017-09-20T08:09:07.379Z,60.9
2017-09-20T08:10:09.824Z,60.9
2017-09-20T08:11:12.267Z,61.1
2017-09-20T08:12:14.717Z,61.1
2017-09-20T08:13:17.168Z,61.1
2017-09-20T08:14:19.624Z,61.1
2017-09-20T08:15:22.426Z,61.1
2017-09-20T08:16:24.880Z,61.1
2017-09-20T08:17:27.333Z,61
2017-09-20T08:18:29.780Z,61.1
2017-09-20T08:19:32.235Z,61.1
2017-09-20T08:20:34.672Z,61
2017-09-20T08:21:37.467Z,61
2017-09-20T08:22:39.923Z,61
2017-09-20T08:23:42.366Z,61.2
2017-09-20T08:24:44.824Z,61.1
2017-09-20T08:25:47.275Z,61.1
2017-09-20T08:26:49.714Z,61.2
2017-09-20T08:27:52.174Z,61.2
2017-09-20T08:28:54.624Z,61.2
2017-09-20T08:29:57.064Z,61.5
2017-09-20T08:30:59.519Z,61.4
2017-09-20T08:32:01.973Z,61.4
2017-09-20T08:33:04.761Z,61.5
2017-09-20T08:34:07.214Z,61.7
2017-09-20T08:35:09.654Z,61.6
2017-09-20T08:36:12.103Z,61.6
2017-09-20T08:37:14.561Z,61.4
2017-09-20T08:38:17.002Z,61.6
2017-09-20T08:39:19.447Z,61.5
2017-09-20T08:40:21.901Z,61.5
2017-09-20T08:41:24.344Z,61.5
2017-09-20T08:42:26.790Z,61.4
2017-09-20T08:43:29.239Z,61.3
2017-09-20T08:44:31.681Z,61.2
2017-09-20T08:45:34.127Z,61.2
2017-09-20T08:46:36.584Z,61.2
2017-09-20T08:47:39.026Z,61.3
2017-09-20T08:48:41.471Z,61.3
2017-09-20T08:49:43.923Z,61.2
2017-09-20T08:50:46.374Z,61.1
2017-09-20T08:51:48.814Z,61.2
2017-09-20T08:52:51.264Z,61.3
2017-09-20T08:53:53.717Z,61.2
2017-09-20T08:54:56.168Z,61.3
2017-09-20T08:55:58.609Z,61.2
2017-09-20T08:57:01.061Z,61.2
2017-09-20T08:58:03.849Z,61.4
2017-09-20T08:59:06.646Z,61.4
2017-09-20T09:00:09.101Z,61.4
2017-09-20T09:01:11.556Z,61.6
2017-09-20T09:02:14.002Z,61.5
2017-09-20T09:03:16.461Z,61.5
2017-09-20T09:04:18.899Z,61.6
2017-09-20T09:05:21.705Z,61.5
2017-09-20T09:06:24.151Z,61.4
2017-09-20T09:07:26.596Z,61.4
2017-09-20T09:08:29.048Z,61.3
2017-09-20T09:09:32.364Z,61.4
2017-09-20T09:10:36.379Z,61.3
2017-09-20T09:11:38.837Z,61.3
2017-09-20T09:12:41.274Z,61.2
2017-09-20T09:13:44.801Z,61.2
2017-09-20T09:14:48.149Z,61.3
2017-09-20T09:15:51.558Z,61.2
2017-09-20T09:16:54.345Z,61.2
2017-09-20T09:17:56.795Z,61.3
2017-09-20T09:18:59.239Z,61.4
2017-09-20T09:20:02.070Z,61.3
2017-09-20T09:21:04.510Z,61.3
2017-09-20T09:22:06.963Z,61.2
2017-09-20T09:23:10.397Z,61.2
2017-09-20T09:24:14.264Z,61.2
2017-09-20T09:25:18.755Z,61.3
2017-09-20T09:26:22.995Z,61.2
2017-09-20T09:27:27.121Z,61.3
2017-09-20T09:28:31.304Z,61.3
2017-09-20T09:29:34.168Z,61.2
2017-09-20T09:30:37.032Z,61.2
2017-09-20T09:31:39.578Z,61.2
2017-09-20T09:32:43.606Z,61.2
2017-09-20T09:33:46.047Z,61.4
2017-09-20T09:34:49.456Z,61.5
2017-09-20T09:35:51.898Z,61.5
2017-09-20T09:36:54.352Z,61.5
2017-09-20T09:37:56.870Z,61.5
2017-09-20T09:38:59.373Z,61.5
2017-09-20T09:40:02.913Z,61.5
2017-09-20T09:41:05.819Z,61.6
2017-09-20T09:42:09.792Z,61.5
2017-09-20T09:43:12.289Z,61.6
2017-09-20T09:44:17.030Z,61.7
2017-09-20T09:45:21.541Z,61.7
2017-09-20T09:46:24.413Z,61.7
2017-09-20T09:47:27.197Z,61.7
2017-09-20T09:48:29.644Z,61.7
2017-09-20T09:49:32.093Z,61.8
2017-09-20T09:50:34.910Z,61.8
2017-09-20T09:51:37.361Z,61.8
2017-09-20T09:52:39.820Z,62.1
2017-09-20T09:53:42.265Z,62.3
2017-09-20T09:54:44.708Z,62.3
2017-09-20T09:55:47.164Z,62.3
2017-09-20T09:56:49.609Z,62.4
2017-09-20T09:57:52.053Z,62.5
2017-09-20T09:58:54.502Z,62.6
2017-09-20T09:59:56.946Z,62.4
2017-09-20T10:00:59.398Z,62.7
2017-09-20T10:02:01.852Z,63
2017-09-20T10:03:04.288Z,63.3
2017-09-20T10:04:06.734Z,63.2
2017-09-20T10:05:09.532Z,62.9
2017-09-20T10:06:11.983Z,62.7
2017-09-20T10:07:14.774Z,62.5
2017-09-20T10:08:17.212Z,62.6
2017-09-20T10:09:20.011Z,62.1
2017-09-20T10:10:22.472Z,61.9
2017-09-20T10:11:24.921Z,61.7
2017-09-20T10:12:27.719Z,61.7
2017-09-20T10:13:30.166Z,61.6
2017-09-20T10:14:32.611Z,61.5
2017-09-20T10:15:35.065Z,61.3
2017-09-20T10:16:37.869Z,61.2
2017-09-20T10:17:40.312Z,61
2017-09-20T10:18:42.763Z,61
2017-09-20T10:19:45.219Z,60.8
2017-09-20T10:20:47.669Z,60.8
2017-09-20T10:21:50.118Z,60.7
2017-09-20T10:22:52.567Z,60.7
2017-09-20T10:23:55.012Z,60.7
2017-09-20T10:24:57.460Z,60.8
2017-09-20T10:25:59.914Z,60.7
2017-09-20T10:27:02.348Z,60.8
2017-09-20T10:28:04.797Z,60.9
2017-09-20T10:29:07.250Z,60.9
2017-09-20T10:30:09.702Z,61
2017-09-20T10:31:12.154Z,61.1
2017-09-20T10:32:14.943Z,61.1
2017-09-20T10:33:17.384Z,61.1
2017-09-20T10:34:19.848Z,61.1
2017-09-20T10:35:22.297Z,61.1
2017-09-20T10:36:24.740Z,61.2
2017-09-20T10:37:27.187Z,61.3
2017-09-20T10:38:29.976Z,61.4
2017-09-20T10:39:32.424Z,61.4
2017-09-20T10:40:34.882Z,61.4
2017-09-20T10:41:37.320Z,61.4
2017-09-20T10:42:40.111Z,61.5
2017-09-20T10:43:42.568Z,61.4
2017-09-20T10:44:45.015Z,61.4
2017-09-20T10:45:47.460Z,61.3
2017-09-20T10:46:49.910Z,61.3
2017-09-20T10:47:52.725Z,61.3
2017-09-20T10:48:55.171Z,61.3
2017-09-20T10:49:57.964Z,61.4
2017-09-20T10:51:00.421Z,61.4
2017-09-20T10:52:02.859Z,61.4
2017-09-20T10:53:05.306Z,61.5
2017-09-20T10:54:08.108Z,61.4
2017-09-20T10:55:10.555Z,61.5
2017-09-20T10:56:13.001Z,61.5
2017-09-20T10:57:15.793Z,61.4
2017-09-20T10:58:18.239Z,61.4
2017-09-20T10:59:20.690Z,61.2
2017-09-20T11:00:23.144Z,61.1
2017-09-20T11:01:25.594Z,60.9
2017-09-20T11:02:28.036Z,60.8
2017-09-20T11:03:30.489Z,61
2017-09-20T11:04:33.276Z,60.7
2017-09-20T11:05:35.734Z,60.8
2017-09-20T11:06:38.185Z,60.8
2017-09-20T11:07:40.970Z,60.8
2017-09-20T11:08:43.414Z,60.9
2017-09-20T11:09:45.871Z,61
2017-09-20T11:10:48.316Z,61.1
2017-09-20T11:11:50.763Z,61.1
2017-09-20T11:12:53.206Z,61
2017-09-20T11:13:55.664Z,61
2017-09-20T11:14:58.115Z,61.1
2017-09-20T11:16:00.562Z,61
2017-09-20T11:17:03.002Z,60.9
2017-09-20T11:18:05.452Z,60.8
2017-09-20T11:19:07.897Z,60.4
2017-09-20T11:20:10.347Z,60.2
2017-09-20T11:21:13.139Z,60.3
2017-09-20T11:22:15.932Z,60.4
2017-09-20T11:23:18.384Z,60.3
2017-09-20T11:24:20.846Z,60.4
2017-09-20T11:25:23.661Z,60.4
2017-09-20T11:26:26.110Z,60.5
2017-09-20T11:27:28.553Z,60.4
2017-09-20T11:28:31.042Z,60.3
2017-09-20T11:29:33.494Z,60.2
2017-09-20T11:30:35.942Z,60.1
2017-09-20T11:31:38.387Z,60
2017-09-20T11:32:40.841Z,60
2017-09-20T11:33:43.289Z,60
2017-09-20T11:34:45.746Z,60
2017-09-20T11:35:48.200Z,59.8
2017-09-20T11:36:50.647Z,59.9
2017-09-20T11:37:53.179Z,59.8
2017-09-20T11:38:55.642Z,59.6
2017-09-20T11:39:59.205Z,59.6
2017-09-20T11:41:01.678Z,59.6
2017-09-20T11:42:04.123Z,59.6
2017-09-20T11:43:07.835Z,59.6
2017-09-20T11:44:11.140Z,59.6
2017-09-20T11:45:13.585Z,59.5
2017-09-20T11:46:16.032Z,59.7
2017-09-20T11:47:18.489Z,59.8
2017-09-20T11:48:21.283Z,59.8
2017-09-20T11:49:23.733Z,60
2017-09-20T11:50:26.520Z,60.2
2017-09-20T11:51:29.096Z,60
2017-09-20T11:52:31.557Z,60.2
2017-09-20T11:53:34.006Z,59.7
2017-09-20T11:54:36.461Z,59.9
2017-09-20T11:55:38.914Z,60
2017-09-20T11:56:41.364Z,60
2017-09-20T11:57:43.818Z,59.7
2017-09-20T11:58:46.611Z,59.8
2017-09-20T11:59:49.054Z,59.7
2017-09-20T12:00:51.514Z,59.7
2017-09-20T12:01:53.965Z,59.6
2017-09-20T12:02:56.421Z,59.4
2017-09-20T12:03:59.213Z,59.1
2017-09-20T12:05:01.667Z,58.7
2017-09-20T12:06:04.797Z,58.5
2017-09-20T12:07:07.259Z,58.4
2017-09-20T12:08:09.710Z,58.4
2017-09-20T12:09:12.184Z,58.4
2017-09-20T12:10:14.640Z,58.3
2017-09-20T12:11:17.090Z,58.4
2017-09-20T12:12:19.549Z,58.2
2017-09-20T12:13:22.010Z,58.3
2017-09-20T12:14:24.448Z,58.2
2017-09-20T12:15:26.901Z,58.2
2017-09-20T12:16:29.361Z,57.9
2017-09-20T12:17:32.156Z,57.8
2017-09-20T12:18:34.607Z,57.8
2017-09-20T12:19:37.057Z,57.7
2017-09-20T12:20:39.511Z,57.5
2017-09-20T12:21:42.089Z,57.7
2017-09-20T12:22:44.945Z,57.8
2017-09-20T12:23:47.432Z,57.9
2017-09-20T12:24:49.872Z,57.9
2017-09-20T12:25:52.696Z,58.1
2017-09-20T12:26:55.145Z,58.3
2017-09-20T12:27:57.594Z,58.1
2017-09-20T12:29:00.050Z,58
2017-09-20T12:30:02.506Z,57.9
2017-09-20T12:31:04.950Z,58
2017-09-20T12:32:07.406Z,58
2017-09-20T12:33:09.892Z,58.1
2017-09-20T12:34:12.724Z,58.1
2017-09-20T12:35:15.176Z,58.1
2017-09-20T12:36:17.985Z,58.1
2017-09-20T12:37:20.430Z,58
2017-09-20T12:38:22.932Z,57.9
2017-09-20T12:39:25.720Z,57.8
2017-09-20T12:40:28.187Z,57.9
2017-09-20T12:41:30.638Z,57.7
2017-09-20T12:42:33.095Z,57.7
2017-09-20T12:43:35.546Z,57.8
2017-09-20T12:44:38.003Z,57.6
2017-09-20T12:45:40.454Z,57.7
2017-09-20T12:46:42.900Z,57.6
2017-09-20T12:47:45.355Z,57.8
2017-09-20T12:48:47.814Z,57.7
2017-09-20T12:49:50.596Z,58
2017-09-20T12:50:53.047Z,58
2017-09-20T12:51:55.510Z,57.9
2017-09-20T12:52:57.965Z,57.9
2017-09-20T12:54:00.413Z,57.8
2017-09-20T12:55:03.264Z,58
2017-09-20T12:56:05.711Z,58
2017-09-20T12:57:08.546Z,58.1
2017-09-20T12:58:11.009Z,58.1
2017-09-20T12:59:14.232Z,58.1
2017-09-20T13:00:17.030Z,58
2017-09-20T13:01:19.822Z,57.9
2017-09-20T13:02:22.282Z,57.8
2017-09-20T13:03:24.732Z,57.9
2017-09-20T13:04:27.196Z,58
2017-09-20T13:05:29.994Z,58.3
2017-09-20T13:06:32.446Z,58.4
2017-09-20T13:07:35.597Z,58.4
2017-09-20T13:08:38.049Z,58.2
2017-09-20T13:09:40.518Z,58.4
2017-09-20T13:10:42.971Z,58.4
2017-09-20T13:11:45.786Z,58.4
2017-09-20T13:12:48.240Z,58.2
2017-09-20T13:13:50.689Z,58.1
2017-09-20T13:14:53.140Z,57.9
2017-09-20T13:15:55.591Z,57.7
2017-09-20T13:16:58.106Z,57.6
2017-09-20T13:18:00.715Z,57.5
2017-09-20T13:19:03.148Z,57.2
2017-09-20T13:20:05.602Z,56.9
2017-09-20T13:21:08.051Z,56.7
2017-09-20T13:22:10.503Z,56.6
2017-09-20T13:23:12.958Z,56.6
2017-09-20T13:24:15.767Z,56.6
2017-09-20T13:25:18.223Z,56.6
2017-09-20T13:26:20.677Z,56.6
2017-09-20T13:27:23.500Z,56.5
2017-09-20T13:28:25.957Z,56.5
2017-09-20T13:29:28.764Z,56.2
2017-09-20T13:30:31.213Z,56.2
2017-09-20T13:31:33.679Z,56.3
2017-09-20T13:32:36.467Z,56.4
2017-09-20T13:33:38.925Z,56.2
2017-09-20T13:34:41.383Z,56
2017-09-20T13:35:43.840Z,56
2017-09-20T13:36:46.290Z,56
2017-09-20T13:37:48.757Z,55.9
2017-09-20T13:38:51.889Z,56
2017-09-20T13:39:54.358Z,56.3
2017-09-20T13:40:56.810Z,56.2
2017-09-20T13:41:59.264Z,56.1
2017-09-20T13:43:01.718Z,56
2017-09-20T13:44:04.184Z,56
2017-09-20T13:45:06.630Z,56.1
2017-09-20T13:46:09.097Z,56.4
2017-09-20T13:47:11.905Z,56.3
2017-09-20T13:48:14.363Z,56.4
2017-09-20T13:49:16.821Z,56.4
2017-09-20T13:50:19.272Z,56.4
2017-09-20T13:51:21.729Z,56.5
2017-09-20T13:52:24.180Z,56.5
2017-09-20T13:53:26.994Z,56.5
2017-09-20T13:54:29.438Z,56.6
2017-09-20T13:55:31.891Z,56.8
2017-09-20T13:56:34.345Z,56.8
2017-09-20T13:57:37.485Z,56.9
2017-09-20T13:58:39.931Z,57
2017-09-20T13:59:42.749Z,57
2017-09-20T14:00:45.211Z,57.1